createdAt,value
2022-10-14T00:03:22.589Z,10.30
2022-10-14T00:07:23.202Z,10.40
2022-10-14T00:11:27.464Z,10.40
2022-10-14T00:15:30.260Z,10.40
2022-10-14T00:19:30.421Z,10.40
2022-10-14T00:23:32.004Z,10.40
2022-10-14T00:27:32.197Z,10.40
2022-10-14T00:31:38.649Z,10.40
2022-10-14T00:35:38.795Z,10.30
2022-10-14T00:39:39.354Z,10.30
2022-10-14T00:44:06.997Z,10.30
2022-10-14T00:48:10.997Z,10.20
2022-10-14T00:52:17.868Z,10.30
2022-10-14T00:56:25.477Z,10.30
2022-10-14T01:00:26.274Z,10.30
2022-10-14T01:04:30.195Z,10.30
2022-10-14T01:08:42.850Z,10.40
2022-10-14T01:13:09.994Z,10.40
2022-10-14T01:17:21.486Z,10.40
2022-10-14T01:21:34.047Z,10.40
2022-10-14T01:25:45.551Z,10.50
2022-10-14T01:30:11.395Z,10.50
2022-10-14T01:34:20.459Z,10.50
2022-10-14T01:38:30.116Z,10.50
2022-10-14T01:42:41.002Z,10.50
2022-10-14T01:46:52.921Z,10.50
2022-10-14T01:50:57.168Z,10.50
2022-10-14T01:55:03.266Z,10.50
2022-10-14T01:59:06.103Z,10.60
2022-10-14T02:03:12.174Z,10.60
2022-10-14T02:07:22.716Z,10.60
2022-10-14T02:11:25.160Z,10.60
2022-10-14T02:15:36.336Z,10.60
2022-10-14T02:19:47.202Z,10.60
2022-10-14T02:23:56.716Z,10.70
2022-10-14T02:27:57.757Z,10.60
2022-10-14T02:31:59.646Z,10.60
2022-10-14T02:36:04.804Z,10.60
2022-10-14T02:40:14.653Z,10.60
2022-10-14T02:44:14.881Z,10.60
2022-10-14T02:48:15.869Z,10.60
2022-10-14T02:52:18.786Z,10.60
2022-10-14T02:56:20.695Z,10.60
2022-10-14T03:00:22.094Z,10.60
2022-10-14T03:04:22.661Z,10.60
2022-10-14T03:08:27.725Z,10.70
2022-10-14T03:12:30.234Z,10.70
2022-10-14T03:16:30.804Z,10.70
2022-10-14T03:20:31.969Z,10.70
2022-10-14T03:24:35.386Z,10.70
2022-10-14T03:29:05.211Z,10.70
2022-10-14T03:33:33.687Z,10.70
2022-10-14T03:37:44.918Z,10.70
2022-10-14T03:41:48.673Z,10.70
2022-10-14T03:45:52.365Z,10.80
2022-10-14T03:49:55.255Z,10.80
2022-10-14T03:54:01.104Z,10.80
2022-10-14T03:58:05.422Z,10.80
2022-10-14T04:02:05.925Z,10.80
2022-10-14T04:06:06.221Z,10.80
2022-10-14T04:10:07.920Z,10.80
2022-10-14T04:14:12.298Z,10.80
2022-10-14T04:18:19.299Z,10.80
2022-10-14T04:22:23.271Z,10.70
2022-10-14T04:26:27.443Z,10.70
2022-10-14T04:30:30.410Z,10.60
2022-10-14T04:34:32.428Z,10.50
2022-10-14T04:38:32.903Z,10.50
2022-10-14T04:42:37.953Z,10.40
2022-10-14T04:46:44.607Z,10.40
2022-10-14T04:50:45.288Z,10.30
2022-10-14T04:55:10.805Z,10.30
2022-10-14T04:59:16.427Z,10.30
2022-10-14T05:03:34.502Z,10.30
2022-10-14T05:07:34.911Z,10.40
2022-10-14T05:11:50.997Z,10.40
2022-10-14T05:15:55.820Z,10.40
2022-10-14T05:19:59.064Z,10.30
2022-10-14T05:24:00.689Z,10.30
2022-10-14T05:28:03.917Z,10.30
2022-10-14T05:32:04.181Z,10.30
2022-10-14T05:36:16.986Z,10.40
2022-10-14T05:40:17.237Z,10.40
2022-10-14T05:44:17.763Z,10.50
2022-10-14T05:48:20.485Z,10.50
2022-10-14T05:52:24.435Z,10.60
2022-10-14T05:56:26.349Z,10.60
2022-10-14T06:00:27.414Z,10.60
2022-10-14T06:04:35.261Z,10.70
2022-10-14T06:08:40.002Z,10.70
2022-10-14T06:12:40.525Z,10.80
2022-10-14T06:16:40.853Z,10.90
2022-10-14T06:20:41.364Z,10.90
2022-10-14T06:24:44.090Z,10.90
2022-10-14T06:28:44.412Z,10.90
2022-10-14T06:32:44.742Z,11.00
2022-10-14T06:36:44.874Z,11.10
2022-10-14T06:40:47.578Z,11.20
2022-10-14T06:44:47.979Z,11.20
2022-10-14T06:48:50.295Z,11.20
2022-10-14T06:52:51.283Z,11.30
2022-10-14T06:56:53.994Z,11.40
2022-10-14T07:00:54.566Z,11.50
2022-10-14T07:04:57.320Z,11.50
2022-10-14T07:08:57.477Z,11.70
2022-10-14T07:13:00.316Z,11.90
2022-10-14T07:17:00.699Z,12.10
2022-10-14T07:21:05.027Z,12.30
2022-10-14T07:25:06.628Z,12.30
2022-10-14T07:29:12.452Z,12.30
2022-10-14T07:33:12.801Z,12.30
2022-10-14T07:37:15.381Z,12.30
2022-10-14T07:41:21.018Z,12.30
2022-10-14T07:45:23.776Z,12.30
2022-10-14T07:49:25.320Z,12.30
2022-10-14T07:53:26.291Z,12.30
2022-10-14T07:57:27.762Z,12.20
2022-10-14T08:01:34.084Z,12.20
2022-10-14T08:05:39.128Z,12.30
2022-10-14T08:09:40.447Z,12.40
2022-10-14T08:13:45.243Z,12.40
2022-10-14T08:17:49.129Z,12.40
2022-10-14T08:21:49.276Z,12.60
2022-10-14T08:25:52.427Z,12.70
2022-10-14T08:29:52.543Z,12.80
2022-10-14T08:33:55.728Z,13.00
2022-10-14T08:38:00.547Z,13.10
2022-10-14T08:42:40.062Z,13.10
2022-10-14T08:46:50.974Z,13.40
2022-10-14T08:51:02.509Z,13.50
2022-10-14T08:55:07.537Z,13.50
2022-10-14T08:59:16.188Z,13.30
2022-10-14T09:03:26.853Z,13.00
2022-10-14T09:07:30.020Z,12.90
2022-10-14T09:11:37.491Z,12.80
2022-10-14T09:15:45.307Z,12.80
2022-10-14T09:19:54.182Z,12.90
2022-10-14T09:24:28.617Z,13.00
2022-10-14T09:28:54.677Z,13.10
2022-10-14T09:33:14.140Z,13.30
2022-10-14T09:37:36.824Z,13.60
2022-10-14T09:41:48.661Z,14.30
2022-10-14T09:46:07.416Z,15.00
2022-10-14T09:50:53.397Z,15.50
2022-10-14T10:00:03.832Z,15.50
2022-10-14T10:04:36.010Z,15.50
2022-10-14T10:08:41.415Z,15.60
2022-10-14T10:12:47.263Z,15.60
2022-10-14T10:16:53.694Z,15.90
2022-10-14T10:21:09.778Z,16.00
2022-10-14T10:25:29.302Z,15.80
2022-10-14T10:29:35.526Z,16.20
2022-10-14T10:33:47.876Z,17.10
2022-10-14T10:38:06.555Z,17.50
2022-10-14T10:42:23.686Z,17.90
2022-10-14T10:46:51.490Z,17.60
2022-10-14T11:02:03.284Z,17.00
2022-10-14T11:07:33.636Z,17.00
2022-10-14T11:12:13.019Z,17.10
2022-10-14T11:16:32.264Z,17.30
2022-10-14T11:20:46.736Z,17.40
2022-10-14T11:25:19.338Z,17.50
2022-10-14T11:38:59.808Z,17.80
2022-10-14T11:43:22.414Z,17.60
2022-10-14T11:47:28.412Z,18.00
2022-10-14T11:51:38.880Z,18.00
2022-10-14T11:55:49.787Z,18.00
2022-10-14T12:00:07.837Z,17.90
2022-10-14T12:04:27.446Z,17.70
2022-10-14T12:08:35.873Z,17.40
2022-10-14T12:12:47.066Z,17.50
2022-10-14T12:16:51.367Z,18.10
2022-10-14T12:21:01.709Z,19.80
2022-10-14T12:25:09.732Z,20.30
2022-10-14T12:29:20.224Z,19.60
2022-10-14T12:33:23.075Z,18.90
2022-10-14T12:42:04.988Z,18.80
2022-10-14T12:46:18.535Z,18.90
2022-10-14T12:50:34.081Z,18.90
2022-10-14T12:54:37.817Z,18.70
2022-10-14T12:58:44.946Z,18.40
2022-10-14T13:02:51.719Z,18.30
2022-10-14T13:07:41.018Z,18.20
2022-10-14T13:12:08.964Z,18.10
2022-10-14T13:16:13.084Z,18.00
2022-10-14T13:20:55.338Z,18.00
2022-10-14T13:24:57.919Z,18.10
2022-10-14T13:29:25.766Z,17.90
2022-10-14T13:33:37.725Z,17.90
2022-10-14T13:37:45.807Z,17.70
2022-10-14T13:41:49.327Z,17.70
2022-10-14T13:45:55.637Z,17.50
2022-10-14T13:49:58.892Z,17.20
2022-10-14T13:54:01.823Z,17.00
2022-10-14T13:58:14.212Z,17.00
2022-10-14T14:02:19.840Z,17.00
2022-10-14T14:06:25.624Z,17.30
2022-10-14T14:10:28.049Z,17.40
2022-10-14T14:14:38.513Z,17.40
2022-10-14T14:18:56.077Z,17.20
2022-10-14T14:23:04.592Z,17.10
2022-10-14T14:27:05.072Z,17.00
2022-10-14T14:31:05.255Z,16.80
2022-10-14T14:35:18.070Z,16.70
2022-10-14T14:39:28.449Z,16.70
2022-10-14T14:43:34.589Z,16.70
2022-10-14T14:47:37.143Z,16.50
2022-10-14T14:51:41.784Z,16.40
2022-10-14T14:55:49.715Z,16.40
2022-10-14T15:00:05.245Z,16.30
2022-10-14T15:04:12.980Z,16.20
2022-10-14T15:08:25.887Z,16.10
2022-10-14T15:12:34.311Z,16.00
2022-10-14T15:16:42.388Z,15.90
2022-10-14T15:20:44.761Z,15.80
2022-10-14T15:25:04.447Z,15.70
2022-10-14T15:33:39.847Z,15.60
2022-10-14T15:37:40.089Z,15.50
2022-10-14T15:41:43.477Z,15.40
2022-10-14T15:46:09.085Z,15.40
2022-10-14T15:50:18.212Z,15.30
2022-10-14T15:54:27.139Z,15.30
2022-10-14T15:58:27.260Z,15.30
2022-10-14T16:02:36.209Z,15.20
2022-10-14T16:06:36.441Z,15.20
2022-10-14T16:10:37.070Z,15.20
2022-10-14T16:14:37.203Z,15.10
2022-10-14T16:18:40.006Z,15.00
2022-10-14T16:22:40.240Z,15.00
2022-10-14T16:26:42.245Z,14.90
2022-10-14T16:30:48.790Z,14.90
2022-10-14T16:34:51.511Z,14.80
2022-10-14T16:38:52.091Z,14.80
2022-10-14T16:42:53.362Z,14.80
2022-10-14T16:47:06.888Z,14.70
2022-10-14T16:51:10.431Z,14.70
2022-10-14T16:55:11.774Z,14.70
2022-10-14T16:59:14.954Z,14.70
2022-10-14T17:03:15.370Z,14.60
2022-10-14T17:07:20.126Z,14.60
2022-10-14T17:11:20.790Z,14.60
2022-10-14T17:15:21.147Z,14.60
2022-10-14T17:19:23.990Z,14.50
2022-10-14T17:23:26.776Z,14.60
2022-10-14T17:27:26.976Z,14.50
2022-10-14T17:31:29.017Z,14.50
2022-10-14T17:35:29.233Z,14.50
2022-10-14T17:39:35.328Z,14.40
2022-10-14T17:43:38.310Z,14.40
2022-10-14T17:47:44.995Z,14.40
2022-10-14T17:51:45.490Z,14.40
2022-10-14T17:55:48.214Z,14.30
2022-10-14T17:59:48.314Z,14.30
2022-10-14T18:03:48.483Z,14.30
2022-10-14T18:07:48.623Z,14.40
2022-10-14T18:16:14.898Z,14.30
2022-10-14T18:20:15.302Z,14.30
2022-10-14T18:24:16.301Z,14.30
2022-10-14T18:28:20.886Z,14.30
2022-10-14T18:32:22.429Z,14.30
2022-10-14T18:36:29.154Z,14.30
2022-10-14T18:40:40.494Z,14.30
2022-10-14T18:44:45.172Z,14.30
2022-10-14T18:48:50.637Z,14.30
2022-10-14T18:52:51.348Z,14.30
2022-10-14T18:56:51.518Z,14.30
2022-10-14T19:00:56.119Z,14.30
2022-10-14T19:04:57.036Z,14.30
2022-10-14T19:08:57.547Z,14.40
2022-10-14T19:12:57.638Z,14.40
2022-10-14T19:17:00.296Z,14.40
2022-10-14T19:21:09.063Z,14.30
2022-10-14T19:25:10.945Z,14.30
2022-10-14T19:29:14.493Z,14.10
2022-10-14T19:33:17.351Z,14.00
2022-10-14T19:37:17.603Z,13.90
2022-10-14T19:41:18.794Z,13.80
2022-10-14T19:45:23.983Z,13.80
2022-10-14T19:49:31.391Z,13.80
2022-10-14T19:53:31.895Z,13.70
2022-10-14T19:57:32.037Z,13.70
2022-10-14T20:01:33.893Z,13.70
2022-10-14T20:05:37.393Z,13.60
2022-10-14T20:09:40.717Z,13.60
2022-10-14T20:13:41.317Z,13.50
2022-10-14T20:17:41.710Z,13.50
2022-10-14T20:21:46.062Z,13.40
2022-10-14T20:25:46.607Z,13.40
2022-10-14T20:29:46.871Z,13.30
2022-10-14T20:33:47.114Z,13.30
2022-10-14T20:37:49.848Z,13.30
2022-10-14T20:41:50.047Z,13.20
2022-10-14T20:45:50.202Z,13.30
2022-10-14T20:49:50.567Z,13.20
2022-10-14T20:54:01.718Z,13.10
2022-10-14T21:02:26.904Z,13.10
2022-10-14T21:06:29.573Z,13.10
2022-10-14T21:10:39.215Z,13.10
2022-10-14T21:14:39.439Z,13.10
2022-10-14T21:18:39.615Z,13.10
2022-10-14T21:22:39.687Z,13.10
2022-10-14T21:26:42.600Z,13.10
2022-10-14T21:30:44.380Z,13.20
2022-10-14T21:34:44.558Z,13.20
2022-10-14T21:38:45.085Z,13.20
2022-10-14T21:42:47.942Z,13.20
2022-10-14T21:46:48.102Z,13.20
2022-10-14T21:50:48.345Z,13.20
2022-10-14T21:54:48.438Z,13.30
2022-10-14T21:58:51.432Z,13.20
2022-10-14T22:02:55.614Z,13.20
2022-10-14T22:06:55.992Z,13.20
2022-10-14T22:10:57.426Z,13.10
2022-10-14T22:15:03.286Z,13.10
2022-10-14T22:19:08.570Z,13.10
2022-10-14T22:23:08.681Z,13.10
2022-10-14T22:27:09.434Z,13.10
2022-10-14T22:31:15.682Z,13.10
2022-10-14T22:35:15.801Z,13.10
2022-10-14T22:39:20.814Z,13.10
2022-10-14T22:43:20.975Z,13.10
2022-10-14T22:47:24.047Z,13.10
2022-10-14T22:55:45.517Z,13.00
2022-10-14T22:59:45.742Z,13.00
2022-10-14T23:03:48.507Z,13.00
2022-10-14T23:07:49.213Z,13.00
2022-10-14T23:11:49.342Z,13.00
2022-10-14T23:15:58.759Z,13.00
2022-10-14T23:20:01.496Z,13.00
2022-10-14T23:24:05.689Z,13.00
2022-10-14T23:28:05.835Z,13.00
2022-10-14T23:32:06.144Z,13.00
2022-10-14T23:36:12.102Z,13.00
2022-10-14T23:40:14.420Z,12.90
2022-10-14T23:44:14.780Z,12.90
2022-10-14T23:48:14.909Z,12.90
2022-10-14T23:52:17.694Z,12.90
2022-10-14T23:56:17.853Z,12.90
